VIAG/AGR METAR and TAF weather

Enter ICAO airport designator
Station Type Date Time Source
VIAG METAR 2020/01/27 00:30 UTC NOAA

VIAG 270030Z 00000KT 3000 BR FEW250 08/08 Q1012 BECMG 2000


Station Type Date Time Source
VIAG Decoded METAR 2020/01/27 00:30 UTC NOAA

Agra, India (VIAG) 27-09N 077-58E 169M
Jan 26, 2020 - 07:30 PM EST / 2020.01.27 0030 UTC
Wind: Calm:0
Visibility: 1 mile(s):0
Sky conditions: mostly clear
Weather: mist
Temperature: 46 F (8 C)
Dew Point: 46 F (8 C)
Relative Humidity: 100%
Pressure (altimeter): 29.88 in. Hg (1012 hPa)
ob: VIAG 270030Z 00000KT 3000 BR FEW250 08/08 Q1012 BECMG 2000
cycle: 0

Station Type Date Time Source
VIAG TAF 2020/01/29 12:30 UTC NOAA

TAF VIAG 290930Z 2912/2924 30005KT 4000 HZ SCT030 SCT080
BECMG 2914/2915 VRB02KT 1500 BR
BECMG 2920/2921 0800 FG

Example: see airport list